PAU weather

Pauk Airport
Pauk, Magway Division, Burma

Public forecast

Using degrees Celsius for public forecast. Weather courtesy of forecast.io.

METAR (pilot weather report)

Closest report is Mandalay International Airport, 84.6 nm (156.7 km) E. Retrieved 2019/09/21 01:30 UTC (14 minutes ago):

VYMD 210130Z 18003KT 6000 SCT020 FEW120 28/25 Q1009 NOSIG

TAF (pilot weather forecast)

Forecast is more than 12 hours old.

Closest forecast is Mandalay International Airport, 84.6 nm (156.7 km) E. Retrieved 2019/09/20 00:00 UTC (1 day ago):

TAF VYMD 202300Z 2100/2124 18007KT 6000 SCT020 FEW025CB TEMPO 2100/2106 02008KT 6000 BKN020 FEW025CB